^^
Saratoga-Weather Station Historical Data
Daily Summary for November 22, 2020 Units:  English    Metric   Both
Daily Weekly Monthly Yearly Custom
  High: Low: Average:
Temperature: 43.2 °F 31.5 °F 34.9 °F
Dew Point: 39 °F 30.4 °F 33.4 °F
Humidity: 96% 85% 94%
Wind Speed: 4mph 0mph 0.4mph
Wind Gust: 4mph - -
Wind- - ESE
Pressure: 30.4 in 30.4 in -
Precipitation: 0 in    
Historical Graphs
 
 
Tabular Data for November 22, 2020
Time Temperature Dew Point Pressure Wind Wind Speed Wind Gust Humidity Rainfall Rate (Hourly) solar
00:01 32.9 °F 31.6 °F 30.4 in Calm     95% 0 in 0 W/m2
00:06 33.1 °F 31.8 °F 30.4 in Calm     95% 0 in 0 W/m2
00:11 33.1 °F 32 °F 30.4 in Calm     96% 0 in 0 W/m2
00:16 33.1 °F 32 °F 30.4 in Calm     96% 0 in 0 W/m2
00:21 33.1 °F 32 °F 30.4 in Calm     96% 0 in 0 W/m2
00:26 33.1 °F 32 °F 30.4 in Calm     96% 0 in 0 W/m2
00:31 33.1 °F 32 °F 30.4 in Calm     96% 0 in 0 W/m2
00:36 33.1 °F 32 °F 30.4 in Calm     96% 0 in 0 W/m2
00:41 33.1 °F 32 °F 30.4 in Calm     96% 0 in 0 W/m2
00:46 33.1 °F 32 °F 30.4 in Calm     96% 0 in 0 W/m2
00:51 33.1 °F 32 °F 30.4 in Calm     96% 0 in 0 W/m2
00:57 33.1 °F 31.8 °F 30.4 in Calm     95% 0 in 0 W/m2
01:02 32.9 °F 31.6 °F 30.4 in Calm     95% 0 in 0 W/m2
01:07 32.7 °F 31.5 °F 30.4 in Calm     95% 0 in 0 W/m2
01:12 32.7 °F 31.5 °F 30.4 in Calm     95% 0 in 0 W/m2
01:17 32.5 °F 31.3 °F 30.4 in Calm     95% 0 in 0 W/m2
01:22 32.5 °F 31.3 °F 30.4 in Calm     95% 0 in 0 W/m2
01:27 32.5 °F 31.5 °F 30.4 in Calm     96% 0 in 0 W/m2
01:32 32.5 °F 31.5 °F 30.4 in Calm     96% 0 in 0 W/m2
01:37 32.5 °F 31.5 °F 30.4 in Calm     96% 0 in 0 W/m2
01:42 32.5 °F 31.5 °F 30.4 in Calm     96% 0 in 0 W/m2
01:47 32.5 °F 31.3 °F 30.4 in Calm     95% 0 in 0 W/m2
01:52 32.5 °F 31.5 °F 30.4 in Calm   1 mph 96% 0 in 0 W/m2
01:57 32.5 °F 31.5 °F 30.4 in Calm     96% 0 in 0 W/m2
02:02 32.5 °F 31.5 °F 30.4 in Calm   1 mph 96% 0 in 0 W/m2
02:07 32.5 °F 31.3 °F 30.4 in Calm   1 mph 95% 0 in 0 W/m2
02:12 32.5 °F 31.3 °F 30.4 in Calm     95% 0 in 0 W/m2
02:17 32.4 °F 31.1 °F 30.4 in Calm     95% 0 in 0 W/m2
02:22 32.4 °F 31.1 °F 30.4 in Calm     95% 0 in 0 W/m2
02:27 32.2 °F 30.9 °F 30.4 in Calm   1 mph 95% 0 in 0 W/m2
02:32 32 °F 30.9 °F 30.4 in Calm     96% 0 in 0 W/m2
02:37 31.8 °F 30.7 °F 30.4 in Calm     96% 0 in 0 W/m2
02:42 31.8 °F 30.7 °F 30.4 in Calm     96% 0 in 0 W/m2
02:47 31.6 °F 30.4 °F 30.4 in Calm     95% 0 in 0 W/m2
02:52 31.6 °F 30.4 °F 30.4 in Calm     95% 0 in 0 W/m2
02:57 31.6 °F 30.6 °F 30.4 in Calm     96% 0 in 0 W/m2
03:02 31.6 °F 30.6 °F 30.4 in Calm     96% 0 in 0 W/m2
03:07 31.5 °F 30.4 °F 30.4 in Calm     96% 0 in 0 W/m2
03:12 31.6 °F 30.6 °F 30.4 in SE 0.9 mph 2 mph 96% 0 in 0 W/m2
03:17 31.6 °F 30.6 °F 30.4 in Calm     96% 0 in 0 W/m2
03:22 31.8 °F 30.7 °F 30.4 in Calm   2 mph 96% 0 in 0 W/m2
03:27 31.8 °F 30.7 °F 30.4 in Calm     96% 0 in 0 W/m2
03:32 32.2 °F 31.1 °F 30.4 in Calm     96% 0 in 0 W/m2
03:37 32.4 °F 31.3 °F 30.4 in Calm   2 mph 96% 0 in 0 W/m2
03:42 32.4 °F 31.3 °F 30.4 in SE 0.9 mph 1 mph 96% 0 in 0 W/m2
03:47 32.5 °F 31.5 °F 30.4 in Calm   2 mph 96% 0 in 0 W/m2
03:52 32.7 °F 31.6 °F 30.4 in Calm     96% 0 in 0 W/m2
03:57 32.7 °F 31.6 °F 30.4 in Calm   1 mph 96% 0 in 0 W/m2
04:02 32.9 °F 31.8 °F 30.4 in Calm     96% 0 in 0 W/m2
04:07 33.1 °F 32 °F 30.4 in Calm     96% 0 in 0 W/m2
04:12 33.1 °F 32 °F 30.4 in Calm     96% 0 in 0 W/m2
04:17 33.3 °F 32.2 °F 30.4 in Calm     96% 0 in 0 W/m2
04:22 33.3 °F 32.2 °F 30.4 in Calm     96% 0 in 0 W/m2
04:27 33.4 °F 32.4 °F 30.4 in Calm   1 mph 96% 0 in 0 W/m2
04:32 33.4 °F 32.4 °F 30.4 in Calm   2 mph 96% 0 in 0 W/m2
04:37 33.4 °F 32.4 °F 30.4 in Calm     96% 0 in 0 W/m2
04:42 33.4 °F 32.4 °F 30.4 in SE 0.9 mph 2 mph 96% 0 in 0 W/m2
04:47 33.4 °F 32.4 °F 30.4 in Calm     96% 0 in 0 W/m2
04:52 33.4 °F 32.4 °F 30.4 in Calm   2 mph 96% 0 in 0 W/m2
04:57 33.4 °F 32.4 °F 30.4 in Calm     96% 0 in 0 W/m2
05:02 33.6 °F 32.5 °F 30.4 in Calm     96% 0 in 0 W/m2
05:07 33.6 °F 32.5 °F 30.4 in Calm     96% 0 in 0 W/m2
05:12 33.6 °F 32.5 °F 30.4 in Calm   2 mph 96% 0 in 0 W/m2
05:17 33.8 °F 32.7 °F 30.4 in SE 2 mph 2 mph 96% 0 in 0 W/m2
05:22 34 °F 32.9 °F 30.4 in ESE 2.9 mph 4 mph 96% 0 in 0 W/m2
05:27 33.8 °F 32.7 °F 30.4 in NW 2 mph 3 mph 96% 0 in 0 W/m2
05:32 33.6 °F 32.5 °F 30.4 in ESE 4 mph 4 mph 96% 0 in 0 W/m2
05:37 33.8 °F 32.7 °F 30.4 in Calm   2 mph 96% 0 in 0 W/m2
05:42 33.6 °F 32.5 °F 30.4 in Calm     96% 0 in 0 W/m2
05:47 33.6 °F 32.5 °F 30.4 in ENE 0.9 mph 1 mph 96% 0 in 0 W/m2
05:53 33.8 °F 32.7 °F 30.4 in Calm   1 mph 96% 0 in 0 W/m2
05:58 33.8 °F 32.7 °F 30.4 in Calm     96% 0 in 0 W/m2
06:03 34 °F 32.9 °F 30.4 in ENE 2 mph 2 mph 96% 0 in 0 W/m2
06:08 34.2 °F 33.1 °F 30.4 in Calm   3 mph 96% 0 in 0 W/m2
06:13 34.2 °F 33.1 °F 30.4 in East 0.9 mph 2 mph 96% 0 in 0 W/m2
06:18 34.2 °F 33.1 °F 30.4 in Calm   2 mph 96% 0 in 0 W/m2
06:23 34.2 °F 33.1 °F 30.4 in ENE 0.9 mph 1 mph 96% 0 in 0 W/m2
06:28 34 °F 32.9 °F 30.4 in Calm   1 mph 96% 0 in 0 W/m2
06:33 34 °F 32.9 °F 30.4 in ENE 0.9 mph 1 mph 96% 0 in 0 W/m2
06:38 34 °F 32.9 °F 30.4 in ENE 0.9 mph 2 mph 96% 0 in 0 W/m2
06:43 34 °F 32.9 °F 30.4 in Calm     96% 0 in 0 W/m2
06:48 34.2 °F 33.1 °F 30.4 in Calm     96% 0 in 0 W/m2
06:53 34.2 °F 33.1 °F 30.4 in Calm   1 mph 96% 0 in 0 W/m2
06:58 34.2 °F 33.1 °F 30.4 in Calm     96% 0 in 0 W/m2
07:03 34.2 °F 33.1 °F 30.4 in ENE 0.9 mph 1 mph 96% 0 in 0 W/m2
07:08 34.2 °F 32.9 °F 30.4 in Calm   2 mph 95% 0 in 0 W/m2
07:13 34.2 °F 32.9 °F 30.4 in East 0.9 mph 2 mph 95% 0 in 0 W/m2
07:18 34.2 °F 32.9 °F 30.4 in Calm     95% 0 in 0 W/m2
07:23 34.2 °F 32.9 °F 30.4 in Calm   2 mph 95% 0 in 0 W/m2
07:28 34.2 °F 32.9 °F 30.4 in Calm   2 mph 95% 0 in 0 W/m2
07:33 34.3 °F 33.1 °F 30.4 in Calm   1 mph 95% 0 in 0 W/m2
07:38 34.3 °F 33.1 °F 30.4 in Calm     95% 0 in 0 W/m2
07:43 34.3 °F 33.1 °F 30.4 in Calm     95% 0 in 0 W/m2
07:48 34.5 °F 33.3 °F 30.4 in Calm   1 mph 95% 0 in 0 W/m2
07:53 34.5 °F 33.3 °F 30.4 in Calm     95% 0 in 0 W/m2
07:58 34.7 °F 33.4 °F 30.4 in Calm   1 mph 95% 0 in 0 W/m2
08:03 34.9 °F 33.6 °F 30.4 in NE 0.9 mph 1 mph 95% 0 in 0 W/m2
08:08 35.1 °F 33.8 °F 30.4 in Calm   2 mph 95% 0 in 0 W/m2
08:13 35.2 °F 34 °F 30.4 in East 0.9 mph 2 mph 95% 0 in 5 W/m2
08:18 35.2 °F 34 °F 30.4 in East 0.9 mph 2 mph 95% 0 in 7 W/m2
08:23 35.2 °F 34 °F 30.4 in East 2 mph 3 mph 95% 0 in 9 W/m2
08:28 35.1 °F 33.8 °F 30.4 in East 2 mph 2 mph 95% 0 in 12 W/m2
08:33 35.1 °F 33.8 °F 30.4 in Calm   3 mph 95% 0 in 18 W/m2
08:38 35.1 °F 33.8 °F 30.4 in Calm     95% 0 in 21 W/m2
08:43 35.1 °F 33.8 °F 30.4 in East 2 mph 2 mph 95% 0 in 26 W/m2
08:48 35.1 °F 33.8 °F 30.4 in Calm   2 mph 95% 0 in 30 W/m2
08:53 35.1 °F 33.8 °F 30.4 in Calm   2 mph 95% 0 in 33 W/m2
08:58 35.2 °F 34 °F 30.4 in Calm     95% 0 in 33 W/m2
09:03 35.2 °F 34 °F 30.4 in Calm   1 mph 95% 0 in 37 W/m2
09:08 35.2 °F 34 °F 30.4 in Calm   2 mph 95% 0 in 46 W/m2
09:13 35.2 °F 34 °F 30.4 in Calm     95% 0 in 54 W/m2
09:18 35.4 °F 34.2 °F 30.4 in Calm     95% 0 in 56 W/m2
09:23 35.4 °F 34.2 °F 30.4 in Calm     95% 0 in 53 W/m2
09:28 35.8 °F 34.5 °F 30.4 in Calm     95% 0 in 51 W/m2
09:33 35.8 °F 34.5 °F 30.4 in Calm     95% 0 in 54 W/m2
09:38 36 °F 34.7 °F 30.4 in Calm     95% 0 in 62 W/m2
09:43 36.1 °F 34.9 °F 30.4 in Calm     95% 0 in 65 W/m2
09:48 36.3 °F 35.1 °F 30.4 in East 0.9 mph 2 mph 95% 0 in 65 W/m2
09:53 36.3 °F 34.7 °F 30.4 in Calm     94% 0 in 69 W/m2
09:58 36.5 °F 34.9 °F 30.4 in Calm     94% 0 in 63 W/m2
10:03 36.7 °F 35.1 °F 30.4 in Calm     94% 0 in 62 W/m2
10:08 36.9 °F 35.2 °F 30.4 in Calm     94% 0 in 72 W/m2
10:13 37 °F 35.4 °F 30.4 in Calm     94% 0 in 93 W/m2
10:18 37.2 °F 35.6 °F 30.4 in Calm     94% 0 in 98 W/m2
10:23 37.6 °F 36 °F 30.4 in Calm     94% 0 in 84 W/m2
10:28 37.8 °F 36.1 °F 30.4 in East 2 mph 2 mph 94% 0 in 79 W/m2
10:33 38.1 °F 36.3 °F 30.4 in Calm   1 mph 93% 0 in 97 W/m2
10:38 38.5 °F 36.7 °F 30.4 in Calm   1 mph 93% 0 in 113 W/m2
10:43 38.8 °F 37 °F 30.4 in Calm   1 mph 93% 0 in 113 W/m2
10:48 39 °F 36.9 °F 30.4 in Calm   3 mph 92% 0 in 134 W/m2
10:53 39.4 °F 37.2 °F 30.4 in East 2.9 mph 3 mph 92% 0 in 158 W/m2
10:58 39.7 °F 37.4 °F 30.4 in East 2 mph 3 mph 91% 0 in 167 W/m2
11:03 40.1 °F 37.8 °F 30.4 in ENE 0.9 mph 1 mph 91% 0 in 146 W/m2
11:08 40.5 °F 37.8 °F 30.4 in Calm   1 mph 90% 0 in 139 W/m2
11:13 40.8 °F 38.1 °F 30.4 in Calm   2 mph 90% 0 in 139 W/m2
11:18 41.2 °F 38.1 °F 30.4 in Calm   2 mph 89% 0 in 132 W/m2
11:23 41.4 °F 38.1 °F 30.4 in East 0.9 mph 2 mph 88% 0 in 105 W/m2
11:28 41.5 °F 38.3 °F 30.4 in ESE 0.9 mph 3 mph 88% 0 in 98 W/m2
11:33 41.5 °F 37.9 °F 30.4 in ESE 2.9 mph 3 mph 87% 0 in 100 W/m2
11:38 41.7 °F 38.1 °F 30.4 in ESE 0.9 mph 2 mph 87% 0 in 111 W/m2
11:43 41.5 °F 37.6 °F 30.4 in East 2 mph 3 mph 86% 0 in 118 W/m2
11:48 41.5 °F 37.9 °F 30.4 in ESE 0.9 mph 3 mph 87% 0 in 100 W/m2
11:54 41.7 °F 38.1 °F 30.4 in ESE 0.9 mph 1 mph 87% 0 in 91 W/m2
11:59 42.1 °F 38.5 °F 30.4 in ESE 2 mph 3 mph 87% 0 in 100 W/m2
12:04 42.3 °F 38.7 °F 30.4 in Calm   2 mph 87% 0 in 114 W/m2
12:09 42.4 °F 38.5 °F 30.4 in ESE 0.9 mph 3 mph 86% 0 in 114 W/m2
12:14 42.8 °F 38.8 °F 30.4 in ENE 2.9 mph 4 mph 86% 0 in 120 W/m2
12:19 43 °F 38.8 °F 30.4 in ENE 0.9 mph 2 mph 85% 0 in 121 W/m2
12:24 43 °F 38.8 °F 30.4 in ESE 4 mph 4 mph 85% 0 in 125 W/m2
12:29 43.2 °F 39 °F 30.4 in Calm   2 mph 85% 0 in 120 W/m2
Juneau County Weather
Compliments of Weather Underground - 2 mb